sensor_id;sensor_type;location;lat;lon;timestamp;P1;durP1;ratioP1;P2;durP2;ratioP2
59468;SDS011;45277;52.768;18.262;2023-08-07T00:00:15;1.55;;;1.48;;
59468;SDS011;45277;52.768;18.262;2023-08-07T00:02:07;1.63;;;1.50;;
59468;SDS011;45277;52.768;18.262;2023-08-07T00:03:38;1.35;;;1.35;;
59468;SDS011;45277;52.768;18.262;2023-08-07T00:05:10;1.50;;;1.45;;
59468;SDS011;45277;52.768;18.262;2023-08-07T00:06:41;1.88;;;1.77;;
59468;SDS011;45277;52.768;18.262;2023-08-07T00:08:12;2.15;;;2.00;;
59468;SDS011;45277;52.768;18.262;2023-08-07T00:09:44;2.00;;;1.90;;
59468;SDS011;45277;52.768;18.262;2023-08-07T00:11:15;1.88;;;1.77;;
59468;SDS011;45277;52.768;18.262;2023-08-07T00:12:47;1.70;;;1.60;;
59468;SDS011;45277;52.768;18.262;2023-08-07T00:14:18;1.67;;;1.58;;
59468;SDS011;45277;52.768;18.262;2023-08-07T00:15:49;1.30;;;1.30;;
59468;SDS011;45277;52.768;18.262;2023-08-07T00:17:21;1.20;;;1.20;;
59468;SDS011;45277;52.768;18.262;2023-08-07T00:18:52;1.65;;;1.52;;
59468;SDS011;45277;52.768;18.262;2023-08-07T00:20:26;1.70;;;1.60;;
59468;SDS011;45277;52.768;18.262;2023-08-07T00:21:58;1.77;;;1.67;;
59468;SDS011;45277;52.768;18.262;2023-08-07T00:23:29;1.60;;;1.50;;
59468;SDS011;45277;52.768;18.262;2023-08-07T00:25:00;1.35;;;1.35;;
59468;SDS011;45277;52.768;18.262;2023-08-07T00:26:32;5.18;;;1.30;;
59468;SDS011;45277;52.768;18.262;2023-08-07T00:28:03;1.98;;;1.75;;
59468;SDS011;45277;52.768;18.262;2023-08-07T00:29:34;1.25;;;1.25;;
59468;SDS011;45277;52.768;18.262;2023-08-07T00:31:07;1.27;;;1.27;;
59468;SDS011;45277;52.768;18.262;2023-08-07T00:32:38;2.55;;;1.48;;
59468;SDS011;45277;52.768;18.262;2023-08-07T00:34:09;1.52;;;1.42;;
59468;SDS011;45277;52.768;18.262;2023-08-07T00:35:41;1.52;;;1.42;;
59468;SDS011;45277;52.768;18.262;2023-08-07T00:37:16;1.27;;;1.20;;
59468;SDS011;45277;52.768;18.262;2023-08-07T00:38:47;1.90;;;1.60;;
59468;SDS011;45277;52.768;18.262;2023-08-07T00:40:19;1.42;;;1.35;;
59468;SDS011;45277;52.768;18.262;2023-08-07T00:41:50;2.95;;;2.10;;
59468;SDS011;45277;52.768;18.262;2023-08-07T00:43:22;1.60;;;1.40;;
59468;SDS011;45277;52.768;18.262;2023-08-07T00:44:53;1.67;;;1.58;;
59468;SDS011;45277;52.768;18.262;2023-08-07T00:46:25;1.00;;;1.00;;
59468;SDS011;45277;52.768;18.262;2023-08-07T00:47:57;1.50;;;1.40;;
59468;SDS011;45277;52.768;18.262;2023-08-07T00:49:29;1.85;;;1.75;;
59468;SDS011;45277;52.768;18.262;2023-08-07T00:51:00;1.58;;;1.48;;
59468;SDS011;45277;52.768;18.262;2023-08-07T00:52:32;1.58;;;1.48;;
59468;SDS011;45277;52.768;18.262;2023-08-07T00:54:04;1.35;;;1.25;;
59468;SDS011;45277;52.768;18.262;2023-08-07T00:55:37;1.55;;;1.45;;
59468;SDS011;45277;52.768;18.262;2023-08-07T00:57:11;1.70;;;1.60;;
59468;SDS011;45277;52.768;18.262;2023-08-07T00:58:45;1.27;;;1.27;;
59468;SDS011;45277;52.768;18.262;2023-08-07T01:00:17;1.77;;;1.67;;
59468;SDS011;45277;52.768;18.262;2023-08-07T01:01:49;1.35;;;1.27;;
59468;SDS011;45277;52.768;18.262;2023-08-07T01:03:21;1.65;;;1.55;;
59468;SDS011;45277;52.768;18.262;2023-08-07T01:04:52;1.60;;;1.50;;
59468;SDS011;45277;52.768;18.262;2023-08-07T01:06:24;1.70;;;1.60;;
59468;SDS011;45277;52.768;18.262;2023-08-07T01:07:55;1.48;;;1.38;;
59468;SDS011;45277;52.768;18.262;2023-08-07T01:09:27;1.42;;;1.40;;
59468;SDS011;45277;52.768;18.262;2023-08-07T01:11:06;1.67;;;1.40;;
59468;SDS011;45277;52.768;18.262;2023-08-07T01:13:04;1.30;;;1.30;;
59468;SDS011;45277;52.768;18.262;2023-08-07T01:14:51;1.70;;;1.60;;
59468;SDS011;45277;52.768;18.262;2023-08-07T01:16:36;1.33;;;1.33;;
59468;SDS011;45277;52.768;18.262;2023-08-07T01:18:16;2.28;;;1.85;;
59468;SDS011;45277;52.768;18.262;2023-08-07T01:19:49;3.90;;;1.45;;
59468;SDS011;45277;52.768;18.262;2023-08-07T01:21:22;1.20;;;1.20;;
59468;SDS011;45277;52.768;18.262;2023-08-07T01:22:53;1.52;;;1.42;;
59468;SDS011;45277;52.768;18.262;2023-08-07T01:24:24;1.08;;;1.08;;
59468;SDS011;45277;52.768;18.262;2023-08-07T01:25:56;2.25;;;1.70;;
59468;SDS011;45277;52.768;18.262;2023-08-07T01:27:37;1.60;;;1.50;;
59468;SDS011;45277;52.768;18.262;2023-08-07T01:29:23;1.30;;;1.30;;
59468;SDS011;45277;52.768;18.262;2023-08-07T01:31:05;1.35;;;1.27;;
59468;SDS011;45277;52.768;18.262;2023-08-07T01:34:14;1.23;;;1.23;;
59468;SDS011;45277;52.768;18.262;2023-08-07T01:35:51;1.77;;;1.67;;
59468;SDS011;45277;52.768;18.262;2023-08-07T01:37:24;1.55;;;1.52;;
59468;SDS011;45277;52.768;18.262;2023-08-07T01:38:59;1.50;;;1.40;;
59468;SDS011;45277;52.768;18.262;2023-08-07T01:40:32;1.80;;;1.70;;
59468;SDS011;45277;52.768;18.262;2023-08-07T01:42:04;3.13;;;1.50;;
59468;SDS011;45277;52.768;18.262;2023-08-07T01:43:36;1.40;;;1.38;;
59468;SDS011;45277;52.768;18.262;2023-08-07T01:45:08;1.30;;;1.20;;
59468;SDS011;45277;52.768;18.262;2023-08-07T01:46:39;1.30;;;1.30;;
59468;SDS011;45277;52.768;18.262;2023-08-07T01:48:11;1.20;;;1.20;;
59468;SDS011;45277;52.768;18.262;2023-08-07T01:49:46;1.60;;;1.60;;
59468;SDS011;45277;52.768;18.262;2023-08-07T01:51:18;1.70;;;1.60;;
59468;SDS011;45277;52.768;18.262;2023-08-07T01:52:49;1.25;;;1.15;;
59468;SDS011;45277;52.768;18.262;2023-08-07T01:54:21;1.63;;;1.52;;
59468;SDS011;45277;52.768;18.262;2023-08-07T01:55:52;1.42;;;1.40;;
59468;SDS011;45277;52.768;18.262;2023-08-07T01:57:24;1.90;;;1.80;;
59468;SDS011;45277;52.768;18.262;2023-08-07T01:58:55;1.30;;;1.20;;
59468;SDS011;45277;52.768;18.262;2023-08-07T02:00:27;1.38;;;1.38;;
59468;SDS011;45277;52.768;18.262;2023-08-07T02:01:58;1.33;;;1.33;;
59468;SDS011;45277;52.768;18.262;2023-08-07T02:03:29;1.27;;;1.27;;
59468;SDS011;45277;52.768;18.262;2023-08-07T02:05:01;1.60;;;1.50;;
59468;SDS011;45277;52.768;18.262;2023-08-07T02:06:33;1.15;;;1.15;;
59468;SDS011;45277;52.768;18.262;2023-08-07T02:08:04;1.40;;;1.40;;
59468;SDS011;45277;52.768;18.262;2023-08-07T02:09:36;1.33;;;1.30;;
59468;SDS011;45277;52.768;18.262;2023-08-07T02:11:07;1.42;;;1.42;;
59468;SDS011;45277;52.768;18.262;2023-08-07T02:12:42;1.60;;;1.50;;
59468;SDS011;45277;52.768;18.262;2023-08-07T02:14:13;1.40;;;1.40;;
59468;SDS011;45277;52.768;18.262;2023-08-07T02:15:44;1.60;;;1.50;;
59468;SDS011;45277;52.768;18.262;2023-08-07T02:17:16;1.67;;;1.42;;
59468;SDS011;45277;52.768;18.262;2023-08-07T02:18:47;1.60;;;1.50;;
59468;SDS011;45277;52.768;18.262;2023-08-07T02:20:19;1.60;;;1.50;;
59468;SDS011;45277;52.768;18.262;2023-08-07T02:21:50;1.88;;;1.77;;
59468;SDS011;45277;52.768;18.262;2023-08-07T02:23:21;1.90;;;1.80;;
59468;SDS011;45277;52.768;18.262;2023-08-07T02:24:53;1.70;;;1.60;;
59468;SDS011;45277;52.768;18.262;2023-08-07T02:26:24;1.75;;;1.65;;
59468;SDS011;45277;52.768;18.262;2023-08-07T02:27:55;1.67;;;1.58;;
59468;SDS011;45277;52.768;18.262;2023-08-07T02:29:27;3.38;;;1.70;;
59468;SDS011;45277;52.768;18.262;2023-08-07T02:30:58;1.95;;;1.85;;
59468;SDS011;45277;52.768;18.262;2023-08-07T02:32:29;1.90;;;1.80;;
59468;SDS011;45277;52.768;18.262;2023-08-07T02:34:01;1.90;;;1.80;;
59468;SDS011;45277;52.768;18.262;2023-08-07T02:35:32;2.20;;;2.00;;
59468;SDS011;45277;52.768;18.262;2023-08-07T02:37:04;4.15;;;1.70;;
59468;SDS011;45277;52.768;18.262;2023-08-07T02:38:35;2.03;;;1.90;;
59468;SDS011;45277;52.768;18.262;2023-08-07T02:40:06;1.73;;;1.63;;
59468;SDS011;45277;52.768;18.262;2023-08-07T02:41:38;2.15;;;2.00;;
59468;SDS011;45277;52.768;18.262;2023-08-07T02:43:10;1.95;;;1.85;;
59468;SDS011;45277;52.768;18.262;2023-08-07T02:44:41;2.38;;;2.20;;
59468;SDS011;45277;52.768;18.262;2023-08-07T02:46:12;1.90;;;1.80;;
59468;SDS011;45277;52.768;18.262;2023-08-07T02:47:43;2.53;;;2.33;;
59468;SDS011;45277;52.768;18.262;2023-08-07T02:49:15;2.38;;;2.17;;
59468;SDS011;45277;52.768;18.262;2023-08-07T02:50:46;2.45;;;2.20;;
59468;SDS011;45277;52.768;18.262;2023-08-07T02:52:18;2.03;;;1.85;;
59468;SDS011;45277;52.768;18.262;2023-08-07T02:53:49;4.60;;;2.35;;
59468;SDS011;45277;52.768;18.262;2023-08-07T02:55:20;2.45;;;2.25;;
59468;SDS011;45277;52.768;18.262;2023-08-07T02:56:52;2.28;;;2.10;;
59468;SDS011;45277;52.768;18.262;2023-08-07T02:58:23;2.03;;;1.92;;
59468;SDS011;45277;52.768;18.262;2023-08-07T02:59:54;2.72;;;2.30;;
59468;SDS011;45277;52.768;18.262;2023-08-07T03:01:26;2.63;;;2.40;;
59468;SDS011;45277;52.768;18.262;2023-08-07T03:02:58;2.50;;;2.30;;
59468;SDS011;45277;52.768;18.262;2023-08-07T03:04:29;3.03;;;2.60;;
59468;SDS011;45277;52.768;18.262;2023-08-07T03:06:01;4.13;;;2.58;;
59468;SDS011;45277;52.768;18.262;2023-08-07T03:07:32;3.30;;;3.00;;
59468;SDS011;45277;52.768;18.262;2023-08-07T03:09:03;2.60;;;2.40;;
59468;SDS011;45277;52.768;18.262;2023-08-07T03:10:35;2.78;;;2.53;;
59468;SDS011;45277;52.768;18.262;2023-08-07T03:12:06;2.05;;;1.85;;
59468;SDS011;45277;52.768;18.262;2023-08-07T03:13:38;1.50;;;1.40;;
59468;SDS011;45277;52.768;18.262;2023-08-07T03:15:09;2.65;;;2.45;;
59468;SDS011;45277;52.768;18.262;2023-08-07T03:16:40;2.10;;;2.00;;
59468;SDS011;45277;52.768;18.262;2023-08-07T03:18:12;2.10;;;2.00;;
59468;SDS011;45277;52.768;18.262;2023-08-07T03:19:43;2.30;;;2.10;;
59468;SDS011;45277;52.768;18.262;2023-08-07T03:21:15;3.25;;;2.40;;
59468;SDS011;45277;52.768;18.262;2023-08-07T03:22:47;1.92;;;1.70;;
59468;SDS011;45277;52.768;18.262;2023-08-07T03:24:18;1.90;;;1.80;;
59468;SDS011;45277;52.768;18.262;2023-08-07T03:25:49;4.22;;;2.10;;
59468;SDS011;45277;52.768;18.262;2023-08-07T03:27:21;1.88;;;1.77;;
59468;SDS011;45277;52.768;18.262;2023-08-07T03:28:52;2.58;;;2.10;;
59468;SDS011;45277;52.768;18.262;2023-08-07T03:30:24;2.25;;;2.08;;
59468;SDS011;45277;52.768;18.262;2023-08-07T03:31:56;2.80;;;2.00;;
59468;SDS011;45277;52.768;18.262;2023-08-07T03:33:27;1.73;;;1.63;;
59468;SDS011;45277;52.768;18.262;2023-08-07T03:34:59;2.00;;;1.90;;
59468;SDS011;45277;52.768;18.262;2023-08-07T03:36:30;3.63;;;1.60;;
59468;SDS011;45277;52.768;18.262;2023-08-07T03:38:02;2.25;;;2.08;;
59468;SDS011;45277;52.768;18.262;2023-08-07T03:39:33;2.78;;;2.00;;
59468;SDS011;45277;52.768;18.262;2023-08-07T03:41:04;2.30;;;2.10;;
59468;SDS011;45277;52.768;18.262;2023-08-07T03:42:36;1.95;;;1.85;;
59468;SDS011;45277;52.768;18.262;2023-08-07T03:44:07;2.47;;;2.05;;
59468;SDS011;45277;52.768;18.262;2023-08-07T03:45:39;2.08;;;1.80;;
59468;SDS011;45277;52.768;18.262;2023-08-07T03:47:10;2.10;;;2.00;;
59468;SDS011;45277;52.768;18.262;2023-08-07T03:48:41;1.83;;;1.73;;
59468;SDS011;45277;52.768;18.262;2023-08-07T03:50:13;4.47;;;2.40;;
59468;SDS011;45277;52.768;18.262;2023-08-07T03:51:44;3.65;;;1.80;;
59468;SDS011;45277;52.768;18.262;2023-08-07T03:53:16;2.63;;;1.70;;
59468;SDS011;45277;52.768;18.262;2023-08-07T03:54:47;1.15;;;1.15;;
59468;SDS011;45277;52.768;18.262;2023-08-07T03:56:18;1.45;;;1.45;;
59468;SDS011;45277;52.768;18.262;2023-08-07T03:57:50;1.98;;;1.75;;
59468;SDS011;45277;52.768;18.262;2023-08-07T03:59:21;2.08;;;1.98;;
59468;SDS011;45277;52.768;18.262;2023-08-07T04:00:53;1.52;;;1.42;;
59468;SDS011;45277;52.768;18.262;2023-08-07T04:02:24;4.43;;;1.52;;
59468;SDS011;45277;52.768;18.262;2023-08-07T04:03:56;2.00;;;1.90;;
59468;SDS011;45277;52.768;18.262;2023-08-07T04:05:27;1.38;;;1.38;;
59468;SDS011;45277;52.768;18.262;2023-08-07T04:06:58;3.47;;;1.55;;
59468;SDS011;45277;52.768;18.262;2023-08-07T04:08:30;4.32;;;1.95;;
59468;SDS011;45277;52.768;18.262;2023-08-07T04:10:01;1.33;;;1.23;;
59468;SDS011;45277;52.768;18.262;2023-08-07T04:11:33;1.90;;;1.80;;
59468;SDS011;45277;52.768;18.262;2023-08-07T04:13:22;1.90;;;1.80;;
59468;SDS011;45277;52.768;18.262;2023-08-07T04:14:54;1.10;;;1.10;;
59468;SDS011;45277;52.768;18.262;2023-08-07T04:16:25;2.17;;;1.70;;
59468;SDS011;45277;52.768;18.262;2023-08-07T04:17:57;3.85;;;1.45;;
59468;SDS011;45277;52.768;18.262;2023-08-07T04:19:28;3.05;;;1.70;;
59468;SDS011;45277;52.768;18.262;2023-08-07T04:20:59;2.00;;;1.80;;
59468;SDS011;45277;52.768;18.262;2023-08-07T04:22:31;2.03;;;1.90;;
59468;SDS011;45277;52.768;18.262;2023-08-07T04:24:02;2.50;;;2.25;;
59468;SDS011;45277;52.768;18.262;2023-08-07T04:25:41;1.52;;;1.42;;
59468;SDS011;45277;52.768;18.262;2023-08-07T04:27:12;2.20;;;1.83;;
59468;SDS011;45277;52.768;18.262;2023-08-07T04:28:44;6.15;;;2.08;;
59468;SDS011;45277;52.768;18.262;2023-08-07T04:30:15;3.63;;;2.13;;
59468;SDS011;45277;52.768;18.262;2023-08-07T04:31:47;2.47;;;2.03;;
59468;SDS011;45277;52.768;18.262;2023-08-07T04:33:18;2.40;;;2.20;;
59468;SDS011;45277;52.768;18.262;2023-08-07T04:34:50;2.67;;;1.98;;
59468;SDS011;45277;52.768;18.262;2023-08-07T04:36:22;1.85;;;1.75;;
59468;SDS011;45277;52.768;18.262;2023-08-07T04:37:53;2.83;;;2.42;;
59468;SDS011;45277;52.768;18.262;2023-08-07T04:39:24;4.20;;;1.98;;
59468;SDS011;45277;52.768;18.262;2023-08-07T04:40:56;2.13;;;2.03;;
59468;SDS011;45277;52.768;18.262;2023-08-07T04:42:27;3.65;;;2.25;;
59468;SDS011;45277;52.768;18.262;2023-08-07T04:43:58;1.33;;;1.25;;
59468;SDS011;45277;52.768;18.262;2023-08-07T04:45:30;6.47;;;2.72;;
59468;SDS011;45277;52.768;18.262;2023-08-07T04:47:01;3.50;;;2.13;;
59468;SDS011;45277;52.768;18.262;2023-08-07T04:48:33;3.05;;;2.25;;
59468;SDS011;45277;52.768;18.262;2023-08-07T04:50:04;2.88;;;2.33;;
59468;SDS011;45277;52.768;18.262;2023-08-07T04:51:36;2.50;;;2.30;;
59468;SDS011;45277;52.768;18.262;2023-08-07T04:53:07;2.40;;;2.20;;
59468;SDS011;45277;52.768;18.262;2023-08-07T04:54:39;12.10;;;2.83;;
59468;SDS011;45277;52.768;18.262;2023-08-07T04:56:10;2.67;;;2.40;;
59468;SDS011;45277;52.768;18.262;2023-08-07T04:57:41;3.50;;;2.45;;
59468;SDS011;45277;52.768;18.262;2023-08-07T04:59:13;1.98;;;1.80;;
59468;SDS011;45277;52.768;18.262;2023-08-07T05:00:44;1.85;;;1.75;;
59468;SDS011;45277;52.768;18.262;2023-08-07T05:02:15;2.50;;;2.30;;
59468;SDS011;45277;52.768;18.262;2023-08-07T05:03:47;2.47;;;2.28;;
59468;SDS011;45277;52.768;18.262;2023-08-07T05:05:18;2.85;;;2.10;;
59468;SDS011;45277;52.768;18.262;2023-08-07T05:06:54;1.95;;;1.50;;
59468;SDS011;45277;52.768;18.262;2023-08-07T05:08:25;2.45;;;2.22;;
59468;SDS011;45277;52.768;18.262;2023-08-07T05:09:57;2.40;;;2.20;;
59468;SDS011;45277;52.768;18.262;2023-08-07T05:11:30;3.80;;;2.50;;
59468;SDS011;45277;52.768;18.262;2023-08-07T05:13:01;3.13;;;2.45;;
59468;SDS011;45277;52.768;18.262;2023-08-07T05:14:33;2.50;;;2.30;;
59468;SDS011;45277;52.768;18.262;2023-08-07T05:16:04;3.13;;;2.65;;
59468;SDS011;45277;52.768;18.262;2023-08-07T05:17:36;2.80;;;2.53;;
59468;SDS011;45277;52.768;18.262;2023-08-07T05:19:07;5.03;;;2.40;;
59468;SDS011;45277;52.768;18.262;2023-08-07T05:20:38;3.63;;;2.60;;
59468;SDS011;45277;52.768;18.262;2023-08-07T05:22:10;2.60;;;2.40;;
59468;SDS011;45277;52.768;18.262;2023-08-07T05:23:41;2.10;;;2.00;;
59468;SDS011;45277;52.768;18.262;2023-08-07T05:25:13;3.90;;;2.03;;
59468;SDS011;45277;52.768;18.262;2023-08-07T05:26:48;3.63;;;3.20;;
59468;SDS011;45277;52.768;18.262;2023-08-07T05:28:19;5.05;;;4.10;;
59468;SDS011;45277;52.768;18.262;2023-08-07T05:29:50;4.65;;;3.90;;
59468;SDS011;45277;52.768;18.262;2023-08-07T05:31:22;9.73;;;6.82;;
59468;SDS011;45277;52.768;18.262;2023-08-07T05:32:54;3.92;;;3.28;;
59468;SDS011;45277;52.768;18.262;2023-08-07T05:34:25;5.30;;;3.85;;
59468;SDS011;45277;52.768;18.262;2023-08-07T05:35:57;3.17;;;2.88;;
59468;SDS011;45277;52.768;18.262;2023-08-07T05:37:28;3.22;;;2.97;;
59468;SDS011;45277;52.768;18.262;2023-08-07T05:39:02;4.85;;;3.08;;
59468;SDS011;45277;52.768;18.262;2023-08-07T05:40:35;2.67;;;2.15;;
59468;SDS011;45277;52.768;18.262;2023-08-07T05:42:07;4.00;;;1.90;;
59468;SDS011;45277;52.768;18.262;2023-08-07T05:43:40;3.45;;;2.30;;
59468;SDS011;45277;52.768;18.262;2023-08-07T05:45:12;2.85;;;2.10;;
59468;SDS011;45277;52.768;18.262;2023-08-07T05:46:43;3.85;;;2.13;;
59468;SDS011;45277;52.768;18.262;2023-08-07T05:48:15;3.30;;;2.25;;
59468;SDS011;45277;52.768;18.262;2023-08-07T05:49:47;2.60;;;1.85;;
59468;SDS011;45277;52.768;18.262;2023-08-07T05:51:18;1.42;;;1.35;;
59468;SDS011;45277;52.768;18.262;2023-08-07T05:52:50;2.75;;;2.20;;
59468;SDS011;45277;52.768;18.262;2023-08-07T05:54:21;2.33;;;2.13;;
59468;SDS011;45277;52.768;18.262;2023-08-07T05:55:53;2.03;;;1.90;;
59468;SDS011;45277;52.768;18.262;2023-08-07T05:57:25;3.90;;;1.92;;
59468;SDS011;45277;52.768;18.262;2023-08-07T05:58:56;2.72;;;1.65;;
59468;SDS011;45277;52.768;18.262;2023-08-07T06:00:28;1.85;;;1.75;;
59468;SDS011;45277;52.768;18.262;2023-08-07T06:01:59;1.98;;;1.88;;
59468;SDS011;45277;52.768;18.262;2023-08-07T06:03:31;2.53;;;1.90;;
59468;SDS011;45277;52.768;18.262;2023-08-07T06:05:03;4.82;;;2.08;;
59468;SDS011;45277;52.768;18.262;2023-08-07T06:06:35;3.65;;;2.38;;
59468;SDS011;45277;52.768;18.262;2023-08-07T06:10:49;3.05;;;2.40;;
59468;SDS011;45277;52.768;18.262;2023-08-07T06:12:21;2.30;;;2.10;;
59468;SDS011;45277;52.768;18.262;2023-08-07T06:13:53;3.45;;;1.70;;
59468;SDS011;45277;52.768;18.262;2023-08-07T06:15:24;1.00;;;1.00;;
59468;SDS011;45277;52.768;18.262;2023-08-07T06:16:56;1.60;;;1.50;;
59468;SDS011;45277;52.768;18.262;2023-08-07T06:18:32;1.73;;;1.63;;
59468;SDS011;45277;52.768;18.262;2023-08-07T06:20:05;1.38;;;1.27;;
59468;SDS011;45277;52.768;18.262;2023-08-07T06:21:43;1.48;;;1.35;;
59468;SDS011;45277;52.768;18.262;2023-08-07T06:23:14;1.75;;;1.60;;
59468;SDS011;45277;52.768;18.262;2023-08-07T06:24:45;1.60;;;1.48;;
59468;SDS011;45277;52.768;18.262;2023-08-07T06:26:17;1.17;;;1.17;;
59468;SDS011;45277;52.768;18.262;2023-08-07T06:27:50;2.42;;;1.95;;
59468;SDS011;45277;52.768;18.262;2023-08-07T06:29:21;1.80;;;1.70;;
59468;SDS011;45277;52.768;18.262;2023-08-07T06:30:59;1.75;;;1.65;;
59468;SDS011;45277;52.768;18.262;2023-08-07T06:32:32;1.50;;;1.40;;
59468;SDS011;45277;52.768;18.262;2023-08-07T06:34:04;2.60;;;1.90;;
59468;SDS011;45277;52.768;18.262;2023-08-07T06:35:39;1.77;;;1.50;;
59468;SDS011;45277;52.768;18.262;2023-08-07T06:37:23;3.08;;;1.83;;
59468;SDS011;45277;52.768;18.262;2023-08-07T06:39:08;3.72;;;1.17;;
59468;SDS011;45277;52.768;18.262;2023-08-07T06:40:41;1.60;;;1.50;;
59468;SDS011;45277;52.768;18.262;2023-08-07T06:42:13;1.10;;;1.10;;
59468;SDS011;45277;52.768;18.262;2023-08-07T06:43:44;1.80;;;1.67;;
59468;SDS011;45277;52.768;18.262;2023-08-07T06:45:16;3.65;;;1.73;;
59468;SDS011;45277;52.768;18.262;2023-08-07T06:46:48;1.55;;;1.45;;
59468;SDS011;45277;52.768;18.262;2023-08-07T06:48:20;1.75;;;1.40;;
59468;SDS011;45277;52.768;18.262;2023-08-07T06:49:54;1.33;;;1.23;;
59468;SDS011;45277;52.768;18.262;2023-08-07T06:51:25;1.73;;;1.20;;
59468;SDS011;45277;52.768;18.262;2023-08-07T06:52:57;2.30;;;1.77;;
59468;SDS011;45277;52.768;18.262;2023-08-07T06:54:29;2.83;;;1.33;;
59468;SDS011;45277;52.768;18.262;2023-08-07T06:56:00;1.55;;;1.45;;
59468;SDS011;45277;52.768;18.262;2023-08-07T06:57:33;1.33;;;1.23;;
59468;SDS011;45277;52.768;18.262;2023-08-07T06:59:05;2.92;;;1.80;;
59468;SDS011;45277;52.768;18.262;2023-08-07T07:00:37;1.55;;;1.50;;
59468;SDS011;45277;52.768;18.262;2023-08-07T07:02:09;1.23;;;1.13;;
59468;SDS011;45277;52.768;18.262;2023-08-07T07:03:40;1.80;;;1.30;;
59468;SDS011;45277;52.768;18.262;2023-08-07T07:05:12;1.88;;;1.50;;
59468;SDS011;45277;52.768;18.262;2023-08-07T07:06:43;1.60;;;1.30;;
59468;SDS011;45277;52.768;18.262;2023-08-07T07:08:15;3.25;;;2.08;;
59468;SDS011;45277;52.768;18.262;2023-08-07T07:09:47;2.88;;;2.15;;
59468;SDS011;45277;52.768;18.262;2023-08-07T07:11:18;3.10;;;1.77;;
59468;SDS011;45277;52.768;18.262;2023-08-07T07:12:51;5.50;;;1.73;;
59468;SDS011;45277;52.768;18.262;2023-08-07T07:14:23;2.47;;;2.00;;
59468;SDS011;45277;52.768;18.262;2023-08-07T07:15:54;1.60;;;1.50;;
59468;SDS011;45277;52.768;18.262;2023-08-07T07:17:26;5.45;;;1.42;;
59468;SDS011;45277;52.768;18.262;2023-08-07T07:18:58;2.08;;;1.83;;
59468;SDS011;45277;52.768;18.262;2023-08-07T07:20:31;2.83;;;1.70;;
59468;SDS011;45277;52.768;18.262;2023-08-07T07:22:02;2.92;;;1.60;;
59468;SDS011;45277;52.768;18.262;2023-08-07T07:23:34;1.65;;;1.52;;
59468;SDS011;45277;52.768;18.262;2023-08-07T07:25:06;2.15;;;1.95;;
59468;SDS011;45277;52.768;18.262;2023-08-07T07:26:38;3.17;;;2.13;;
59468;SDS011;45277;52.768;18.262;2023-08-07T07:28:09;5.57;;;1.65;;
59468;SDS011;45277;52.768;18.262;2023-08-07T07:29:41;2.22;;;1.83;;
59468;SDS011;45277;52.768;18.262;2023-08-07T07:31:13;1.67;;;1.58;;
59468;SDS011;45277;52.768;18.262;2023-08-07T07:32:44;1.98;;;1.80;;
59468;SDS011;45277;52.768;18.262;2023-08-07T07:34:16;2.25;;;1.70;;
59468;SDS011;45277;52.768;18.262;2023-08-07T07:35:48;2.88;;;1.65;;
59468;SDS011;45277;52.768;18.262;2023-08-07T07:37:20;2.15;;;1.95;;
59468;SDS011;45277;52.768;18.262;2023-08-07T07:38:51;1.52;;;1.42;;
59468;SDS011;45277;52.768;18.262;2023-08-07T07:40:23;3.65;;;2.25;;
59468;SDS011;45277;52.768;18.262;2023-08-07T07:41:54;2.58;;;1.80;;
59468;SDS011;45277;52.768;18.262;2023-08-07T07:43:26;1.58;;;1.48;;
59468;SDS011;45277;52.768;18.262;2023-08-07T07:44:58;2.03;;;1.42;;
59468;SDS011;45277;52.768;18.262;2023-08-07T07:46:29;2.40;;;2.20;;
59468;SDS011;45277;52.768;18.262;2023-08-07T07:48:02;3.28;;;2.50;;
59468;SDS011;45277;52.768;18.262;2023-08-07T07:49:34;1.50;;;1.50;;
59468;SDS011;45277;52.768;18.262;2023-08-07T07:51:06;2.10;;;1.90;;
59468;SDS011;45277;52.768;18.262;2023-08-07T07:52:38;1.58;;;1.48;;
59468;SDS011;45277;52.768;18.262;2023-08-07T07:54:11;1.40;;;1.30;;
59468;SDS011;45277;52.768;18.262;2023-08-07T07:55:46;4.15;;;2.10;;
59468;SDS011;45277;52.768;18.262;2023-08-07T07:57:18;1.08;;;1.08;;
59468;SDS011;45277;52.768;18.262;2023-08-07T07:58:50;4.15;;;1.58;;
59468;SDS011;45277;52.768;18.262;2023-08-07T08:00:21;1.20;;;1.20;;
59468;SDS011;45277;52.768;18.262;2023-08-07T08:01:57;1.13;;;1.10;;
59468;SDS011;45277;52.768;18.262;2023-08-07T08:03:28;1.30;;;1.20;;
59468;SDS011;45277;52.768;18.262;2023-08-07T08:05:00;1.67;;;1.40;;
59468;SDS011;45277;52.768;18.262;2023-08-07T08:06:31;1.45;;;1.38;;
59468;SDS011;45277;52.768;18.262;2023-08-07T08:08:05;2.42;;;1.85;;
59468;SDS011;45277;52.768;18.262;2023-08-07T08:09:37;1.23;;;1.15;;
59468;SDS011;45277;52.768;18.262;2023-08-07T08:11:09;1.50;;;1.40;;
59468;SDS011;45277;52.768;18.262;2023-08-07T08:12:41;1.08;;;1.08;;
59468;SDS011;45277;52.768;18.262;2023-08-07T08:14:16;1.13;;;1.13;;
59468;SDS011;45277;52.768;18.262;2023-08-07T08:15:48;3.75;;;1.58;;
59468;SDS011;45277;52.768;18.262;2023-08-07T08:17:20;1.77;;;1.30;;
59468;SDS011;45277;52.768;18.262;2023-08-07T08:18:51;1.70;;;1.60;;
59468;SDS011;45277;52.768;18.262;2023-08-07T08:20:23;1.42;;;1.33;;
59468;SDS011;45277;52.768;18.262;2023-08-07T08:21:55;7.47;;;1.27;;
59468;SDS011;45277;52.768;18.262;2023-08-07T08:23:27;1.40;;;1.40;;
59468;SDS011;45277;52.768;18.262;2023-08-07T08:24:58;1.20;;;1.20;;
59468;SDS011;45277;52.768;18.262;2023-08-07T08:26:30;1.25;;;1.15;;
59468;SDS011;45277;52.768;18.262;2023-08-07T08:28:02;7.35;;;1.60;;
59468;SDS011;45277;52.768;18.262;2023-08-07T08:29:34;1.63;;;1.50;;
59468;SDS011;45277;52.768;18.262;2023-08-07T08:31:06;1.63;;;1.52;;
59468;SDS011;45277;52.768;18.262;2023-08-07T08:32:39;3.03;;;1.52;;
59468;SDS011;45277;52.768;18.262;2023-08-07T08:34:10;2.05;;;1.70;;
59468;SDS011;45277;52.768;18.262;2023-08-07T08:35:43;1.48;;;1.38;;
59468;SDS011;45277;52.768;18.262;2023-08-07T08:37:15;1.85;;;1.60;;
59468;SDS011;45277;52.768;18.262;2023-08-07T08:38:47;1.50;;;1.40;;
59468;SDS011;45277;52.768;18.262;2023-08-07T08:40:19;3.05;;;1.55;;
59468;SDS011;45277;52.768;18.262;2023-08-07T08:41:51;1.95;;;1.42;;
59468;SDS011;45277;52.768;18.262;2023-08-07T08:43:23;0.98;;;0.98;;
59468;SDS011;45277;52.768;18.262;2023-08-07T08:44:56;1.40;;;1.30;;
59468;SDS011;45277;52.768;18.262;2023-08-07T08:46:29;1.90;;;1.77;;
59468;SDS011;45277;52.768;18.262;2023-08-07T08:48:02;1.85;;;1.60;;
59468;SDS011;45277;52.768;18.262;2023-08-07T08:49:36;2.00;;;1.50;;
59468;SDS011;45277;52.768;18.262;2023-08-07T08:51:14;1.75;;;1.65;;
59468;SDS011;45277;52.768;18.262;2023-08-07T08:52:46;1.73;;;1.60;;
59468;SDS011;45277;52.768;18.262;2023-08-07T08:54:21;1.55;;;1.27;;
59468;SDS011;45277;52.768;18.262;2023-08-07T08:55:53;2.03;;;1.60;;
59468;SDS011;45277;52.768;18.262;2023-08-07T08:57:25;1.95;;;1.48;;
59468;SDS011;45277;52.768;18.262;2023-08-07T08:58:58;5.30;;;1.75;;
59468;SDS011;45277;52.768;18.262;2023-08-07T09:00:30;1.92;;;1.60;;
59468;SDS011;45277;52.768;18.262;2023-08-07T09:02:02;2.25;;;1.50;;
59468;SDS011;45277;52.768;18.262;2023-08-07T09:03:35;1.73;;;1.63;;
59468;SDS011;45277;52.768;18.262;2023-08-07T09:05:07;2.10;;;1.70;;
59468;SDS011;45277;52.768;18.262;2023-08-07T09:06:38;1.20;;;1.20;;
59468;SDS011;45277;52.768;18.262;2023-08-07T09:08:12;1.60;;;1.50;;
59468;SDS011;45277;52.768;18.262;2023-08-07T09:09:44;2.05;;;1.70;;
59468;SDS011;45277;52.768;18.262;2023-08-07T09:11:17;2.00;;;1.80;;